sensor_id;sensor_type;location;lat;lon;timestamp;P1;P2;P0
69224;PMS1003;56333;51.306;17.056;2023-04-29T00:00:20;14.60;9.30;
69224;PMS1003;56333;51.306;17.056;2023-04-29T00:01:56;15.90;9.60;
69224;PMS1003;56333;51.306;17.056;2023-04-29T00:03:25;14.40;9.50;
69224;PMS1003;56333;51.306;17.056;2023-04-29T00:04:57;13.60;9.20;
69224;PMS1003;56333;51.306;17.056;2023-04-29T00:06:29;12.20;9.10;
69224;PMS1003;56333;51.306;17.056;2023-04-29T00:07:59;14.00;9.20;
69224;PMS1003;56333;51.306;17.056;2023-04-29T00:09:30;13.40;8.80;
69224;PMS1003;56333;51.306;17.056;2023-04-29T00:10:59;12.00;8.70;
69224;PMS1003;56333;51.306;17.056;2023-04-29T00:12:28;14.60;8.90;
69224;PMS1003;56333;51.306;17.056;2023-04-29T00:13:59;12.70;8.40;
69224;PMS1003;56333;51.306;17.056;2023-04-29T00:15:27;14.30;8.80;
69224;PMS1003;56333;51.306;17.056;2023-04-29T00:16:56;11.70;8.60;
69224;PMS1003;56333;51.306;17.056;2023-04-29T00:18:25;14.80;9.60;
69224;PMS1003;56333;51.306;17.056;2023-04-29T00:19:55;12.60;9.00;
69224;PMS1003;56333;51.306;17.056;2023-04-29T00:21:24;15.00;9.40;
69224;PMS1003;56333;51.306;17.056;2023-04-29T00:22:53;12.90;9.50;
69224;PMS1003;56333;51.306;17.056;2023-04-29T00:24:23;12.00;9.00;
69224;PMS1003;56333;51.306;17.056;2023-04-29T00:25:52;11.50;9.20;
69224;PMS1003;56333;51.306;17.056;2023-04-29T00:27:21;15.20;9.30;
69224;PMS1003;56333;51.306;17.056;2023-04-29T00:28:51;12.60;9.00;
69224;PMS1003;56333;51.306;17.056;2023-04-29T00:30:20;13.30;9.40;
69224;PMS1003;56333;51.306;17.056;2023-04-29T00:31:49;12.60;9.20;
69224;PMS1003;56333;51.306;17.056;2023-04-29T00:33:18;14.60;9.60;
69224;PMS1003;56333;51.306;17.056;2023-04-29T00:34:46;14.30;9.90;
69224;PMS1003;56333;51.306;17.056;2023-04-29T00:36:16;14.70;9.60;
69224;PMS1003;56333;51.306;17.056;2023-04-29T00:37:44;14.20;9.70;
69224;PMS1003;56333;51.306;17.056;2023-04-29T00:39:14;13.80;10.00;
69224;PMS1003;56333;51.306;17.056;2023-04-29T00:40:43;16.80;9.80;
69224;PMS1003;56333;51.306;17.056;2023-04-29T00:42:12;13.00;9.70;
69224;PMS1003;56333;51.306;17.056;2023-04-29T00:43:41;13.90;10.30;
69224;PMS1003;56333;51.306;17.056;2023-04-29T00:45:11;16.50;10.80;
69224;PMS1003;56333;51.306;17.056;2023-04-29T00:46:41;15.50;10.50;
69224;PMS1003;56333;51.306;17.056;2023-04-29T00:48:09;14.20;10.70;
69224;PMS1003;56333;51.306;17.056;2023-04-29T00:49:40;17.00;11.10;
69224;PMS1003;56333;51.306;17.056;2023-04-29T00:51:09;19.10;11.90;
69224;PMS1003;56333;51.306;17.056;2023-04-29T00:52:38;17.70;11.40;
69224;PMS1003;56333;51.306;17.056;2023-04-29T00:54:07;19.40;11.60;
69224;PMS1003;56333;51.306;17.056;2023-04-29T00:55:37;17.10;11.30;
69224;PMS1003;56333;51.306;17.056;2023-04-29T00:57:06;14.80;10.70;
69224;PMS1003;56333;51.306;17.056;2023-04-29T00:58:35;17.00;11.60;
69224;PMS1003;56333;51.306;17.056;2023-04-29T01:00:05;14.50;10.60;
69224;PMS1003;56333;51.306;17.056;2023-04-29T01:01:36;17.50;10.10;
69224;PMS1003;56333;51.306;17.056;2023-04-29T01:03:05;14.90;10.80;
69224;PMS1003;56333;51.306;17.056;2023-04-29T01:04:37;17.90;11.00;
69224;PMS1003;56333;51.306;17.056;2023-04-29T01:06:15;15.80;10.80;
69224;PMS1003;56333;51.306;17.056;2023-04-29T01:08:05;15.60;10.50;
69224;PMS1003;56333;51.306;17.056;2023-04-29T01:10:02;17.00;11.60;
69224;PMS1003;56333;51.306;17.056;2023-04-29T01:11:44;20.70;14.70;
69224;PMS1003;56333;51.306;17.056;2023-04-29T01:13:29;22.10;14.30;
69224;PMS1003;56333;51.306;17.056;2023-04-29T01:15:11;21.20;12.90;
69224;PMS1003;56333;51.306;17.056;2023-04-29T01:16:52;19.50;12.30;
69224;PMS1003;56333;51.306;17.056;2023-04-29T01:18:28;19.60;12.50;
69224;PMS1003;56333;51.306;17.056;2023-04-29T01:20:01;21.30;14.10;
69224;PMS1003;56333;51.306;17.056;2023-04-29T01:21:32;18.70;12.40;
69224;PMS1003;56333;51.306;17.056;2023-04-29T01:23:14;18.10;12.20;
69224;PMS1003;56333;51.306;17.056;2023-04-29T01:24:43;19.40;12.10;
69224;PMS1003;56333;51.306;17.056;2023-04-29T01:26:13;18.70;11.90;
69224;PMS1003;56333;51.306;17.056;2023-04-29T01:29:43;15.40;11.30;
69224;PMS1003;56333;51.306;17.056;2023-04-29T01:31:21;14.70;10.90;
69224;PMS1003;56333;51.306;17.056;2023-04-29T01:33:01;16.40;11.90;
69224;PMS1003;56333;51.306;17.056;2023-04-29T01:34:36;18.10;11.90;
69224;PMS1003;56333;51.306;17.056;2023-04-29T01:36:17;18.60;12.40;
69224;PMS1003;56333;51.306;17.056;2023-04-29T01:38:05;18.10;11.50;
69224;PMS1003;56333;51.306;17.056;2023-04-29T01:41:20;17.00;12.30;
69224;PMS1003;56333;51.306;17.056;2023-04-29T01:43:03;17.50;12.10;
69224;PMS1003;56333;51.306;17.056;2023-04-29T01:44:36;19.10;12.10;
69224;PMS1003;56333;51.306;17.056;2023-04-29T01:46:09;18.00;12.00;
69224;PMS1003;56333;51.306;17.056;2023-04-29T01:47:39;18.40;12.20;
69224;PMS1003;56333;51.306;17.056;2023-04-29T01:49:08;27.40;15.20;
69224;PMS1003;56333;51.306;17.056;2023-04-29T01:50:39;18.70;12.20;
69224;PMS1003;56333;51.306;17.056;2023-04-29T01:52:11;23.90;13.50;
69224;PMS1003;56333;51.306;17.056;2023-04-29T01:53:43;19.70;12.30;
69224;PMS1003;56333;51.306;17.056;2023-04-29T01:55:12;17.60;11.00;
69224;PMS1003;56333;51.306;17.056;2023-04-29T01:56:49;17.70;11.70;
69224;PMS1003;56333;51.306;17.056;2023-04-29T01:58:36;17.30;11.70;
69224;PMS1003;56333;51.306;17.056;2023-04-29T02:00:47;17.20;11.50;
69224;PMS1003;56333;51.306;17.056;2023-04-29T02:02:16;17.40;11.50;
69224;PMS1003;56333;51.306;17.056;2023-04-29T02:03:52;16.60;11.00;
69224;PMS1003;56333;51.306;17.056;2023-04-29T02:05:22;16.90;11.20;
69224;PMS1003;56333;51.306;17.056;2023-04-29T02:06:55;17.10;10.70;
69224;PMS1003;56333;51.306;17.056;2023-04-29T02:08:24;16.00;10.80;
69224;PMS1003;56333;51.306;17.056;2023-04-29T02:09:53;18.60;11.10;
69224;PMS1003;56333;51.306;17.056;2023-04-29T02:11:22;18.00;11.40;
69224;PMS1003;56333;51.306;17.056;2023-04-29T02:12:53;16.20;11.40;
69224;PMS1003;56333;51.306;17.056;2023-04-29T02:14:23;15.30;11.60;
69224;PMS1003;56333;51.306;17.056;2023-04-29T02:16:09;17.50;11.70;
69224;PMS1003;56333;51.306;17.056;2023-04-29T02:17:43;18.60;11.90;
69224;PMS1003;56333;51.306;17.056;2023-04-29T02:19:13;15.40;11.40;
69224;PMS1003;56333;51.306;17.056;2023-04-29T02:20:42;17.20;11.30;
69224;PMS1003;56333;51.306;17.056;2023-04-29T02:22:11;16.40;11.60;
69224;PMS1003;56333;51.306;17.056;2023-04-29T02:23:40;17.60;11.50;
69224;PMS1003;56333;51.306;17.056;2023-04-29T02:25:10;20.30;11.60;
69224;PMS1003;56333;51.306;17.056;2023-04-29T02:26:39;17.10;11.20;
69224;PMS1003;56333;51.306;17.056;2023-04-29T02:28:08;17.60;11.50;
69224;PMS1003;56333;51.306;17.056;2023-04-29T02:29:39;20.10;12.00;
69224;PMS1003;56333;51.306;17.056;2023-04-29T02:31:09;15.80;10.50;
69224;PMS1003;56333;51.306;17.056;2023-04-29T02:32:37;17.00;11.20;
69224;PMS1003;56333;51.306;17.056;2023-04-29T02:34:06;19.40;10.90;
69224;PMS1003;56333;51.306;17.056;2023-04-29T02:35:35;17.80;12.30;
69224;PMS1003;56333;51.306;17.056;2023-04-29T02:37:05;19.30;12.70;
69224;PMS1003;56333;51.306;17.056;2023-04-29T02:38:34;17.20;11.50;
69224;PMS1003;56333;51.306;17.056;2023-04-29T02:40:03;15.90;11.30;
69224;PMS1003;56333;51.306;17.056;2023-04-29T02:41:34;16.00;10.50;
69224;PMS1003;56333;51.306;17.056;2023-04-29T02:43:03;15.60;10.60;
69224;PMS1003;56333;51.306;17.056;2023-04-29T02:44:32;17.40;11.00;
69224;PMS1003;56333;51.306;17.056;2023-04-29T02:46:01;15.40;11.10;
69224;PMS1003;56333;51.306;17.056;2023-04-29T02:47:30;16.10;10.70;
69224;PMS1003;56333;51.306;17.056;2023-04-29T02:48:59;18.50;11.00;
69224;PMS1003;56333;51.306;17.056;2023-04-29T02:50:28;16.60;10.80;
69224;PMS1003;56333;51.306;17.056;2023-04-29T02:51:58;15.00;10.30;
69224;PMS1003;56333;51.306;17.056;2023-04-29T02:53:26;15.10;10.80;
69224;PMS1003;56333;51.306;17.056;2023-04-29T02:54:56;16.40;11.20;
69224;PMS1003;56333;51.306;17.056;2023-04-29T02:56:25;15.00;10.60;
69224;PMS1003;56333;51.306;17.056;2023-04-29T02:57:54;14.50;10.10;
69224;PMS1003;56333;51.306;17.056;2023-04-29T02:59:24;18.80;10.90;
69224;PMS1003;56333;51.306;17.056;2023-04-29T03:00:53;15.20;10.50;
69224;PMS1003;56333;51.306;17.056;2023-04-29T03:02:22;17.40;10.60;
69224;PMS1003;56333;51.306;17.056;2023-04-29T03:03:52;14.70;9.70;
69224;PMS1003;56333;51.306;17.056;2023-04-29T03:05:22;17.20;10.00;
69224;PMS1003;56333;51.306;17.056;2023-04-29T03:06:50;16.30;9.80;
69224;PMS1003;56333;51.306;17.056;2023-04-29T03:08:19;13.60;9.50;
69224;PMS1003;56333;51.306;17.056;2023-04-29T03:09:48;13.40;9.70;
69224;PMS1003;56333;51.306;17.056;2023-04-29T03:11:17;18.50;11.00;
69224;PMS1003;56333;51.306;17.056;2023-04-29T03:12:47;16.20;10.20;
69224;PMS1003;56333;51.306;17.056;2023-04-29T03:14:16;16.30;10.00;
69224;PMS1003;56333;51.306;17.056;2023-04-29T03:15:46;15.80;10.00;
69224;PMS1003;56333;51.306;17.056;2023-04-29T03:17:15;15.30;10.20;
69224;PMS1003;56333;51.306;17.056;2023-04-29T03:18:43;16.30;10.30;
69224;PMS1003;56333;51.306;17.056;2023-04-29T03:20:14;14.00;10.00;
69224;PMS1003;56333;51.306;17.056;2023-04-29T03:21:43;13.60;9.40;
69224;PMS1003;56333;51.306;17.056;2023-04-29T03:23:12;14.40;9.90;
69224;PMS1003;56333;51.306;17.056;2023-04-29T03:24:41;17.50;10.60;
69224;PMS1003;56333;51.306;17.056;2023-04-29T03:26:10;14.40;10.60;
69224;PMS1003;56333;51.306;17.056;2023-04-29T03:27:39;15.30;10.20;
69224;PMS1003;56333;51.306;17.056;2023-04-29T03:29:08;15.80;10.00;
69224;PMS1003;56333;51.306;17.056;2023-04-29T03:30:38;14.60;10.40;
69224;PMS1003;56333;51.306;17.056;2023-04-29T03:32:07;12.80;9.80;
69224;PMS1003;56333;51.306;17.056;2023-04-29T03:33:36;18.00;10.60;
69224;PMS1003;56333;51.306;17.056;2023-04-29T03:35:06;15.30;10.70;
69224;PMS1003;56333;51.306;17.056;2023-04-29T03:36:40;16.90;10.60;
69224;PMS1003;56333;51.306;17.056;2023-04-29T03:38:09;14.80;10.20;
69224;PMS1003;56333;51.306;17.056;2023-04-29T03:39:38;17.40;11.50;
69224;PMS1003;56333;51.306;17.056;2023-04-29T03:41:08;16.10;10.50;
69224;PMS1003;56333;51.306;17.056;2023-04-29T03:42:37;13.50;9.40;
69224;PMS1003;56333;51.306;17.056;2023-04-29T03:44:06;16.50;10.20;
69224;PMS1003;56333;51.306;17.056;2023-04-29T03:45:35;16.60;10.70;
69224;PMS1003;56333;51.306;17.056;2023-04-29T03:47:04;15.90;11.10;
69224;PMS1003;56333;51.306;17.056;2023-04-29T03:48:34;16.00;10.80;
69224;PMS1003;56333;51.306;17.056;2023-04-29T03:50:03;17.30;11.40;
69224;PMS1003;56333;51.306;17.056;2023-04-29T03:51:34;16.90;11.50;
69224;PMS1003;56333;51.306;17.056;2023-04-29T03:53:09;17.20;10.80;
69224;PMS1003;56333;51.306;17.056;2023-04-29T03:54:38;16.40;10.50;
69224;PMS1003;56333;51.306;17.056;2023-04-29T03:56:07;16.00;10.10;
69224;PMS1003;56333;51.306;17.056;2023-04-29T03:57:37;18.90;10.80;
69224;PMS1003;56333;51.306;17.056;2023-04-29T03:59:05;19.00;10.90;
69224;PMS1003;56333;51.306;17.056;2023-04-29T04:00:34;16.20;11.00;
69224;PMS1003;56333;51.306;17.056;2023-04-29T04:02:04;15.80;10.70;
69224;PMS1003;56333;51.306;17.056;2023-04-29T04:03:33;16.10;10.30;
69224;PMS1003;56333;51.306;17.056;2023-04-29T04:05:01;18.70;11.30;
69224;PMS1003;56333;51.306;17.056;2023-04-29T04:06:31;21.30;13.30;
69224;PMS1003;56333;51.306;17.056;2023-04-29T04:08:00;20.90;12.10;
69224;PMS1003;56333;51.306;17.056;2023-04-29T04:09:32;18.50;12.10;
69224;PMS1003;56333;51.306;17.056;2023-04-29T04:11:01;18.70;11.50;
69224;PMS1003;56333;51.306;17.056;2023-04-29T04:12:41;16.60;10.90;
69224;PMS1003;56333;51.306;17.056;2023-04-29T04:14:10;16.40;10.40;
69224;PMS1003;56333;51.306;17.056;2023-04-29T04:15:38;16.00;11.30;
69224;PMS1003;56333;51.306;17.056;2023-04-29T04:17:08;16.80;11.50;
69224;PMS1003;56333;51.306;17.056;2023-04-29T04:18:37;17.60;11.20;
69224;PMS1003;56333;51.306;17.056;2023-04-29T04:20:08;16.40;10.80;
69224;PMS1003;56333;51.306;17.056;2023-04-29T04:21:38;15.70;10.00;
69224;PMS1003;56333;51.306;17.056;2023-04-29T04:23:07;13.20;9.90;
69224;PMS1003;56333;51.306;17.056;2023-04-29T04:24:36;13.90;9.80;
69224;PMS1003;56333;51.306;17.056;2023-04-29T04:26:05;13.30;9.50;
69224;PMS1003;56333;51.306;17.056;2023-04-29T04:28:14;16.50;10.00;
69224;PMS1003;56333;51.306;17.056;2023-04-29T04:29:56;16.20;10.70;
69224;PMS1003;56333;51.306;17.056;2023-04-29T04:31:29;15.20;11.00;
69224;PMS1003;56333;51.306;17.056;2023-04-29T04:32:59;16.10;11.50;
69224;PMS1003;56333;51.306;17.056;2023-04-29T04:34:29;15.90;10.90;
69224;PMS1003;56333;51.306;17.056;2023-04-29T04:35:58;14.60;10.70;
69224;PMS1003;56333;51.306;17.056;2023-04-29T04:37:27;14.60;10.40;
69224;PMS1003;56333;51.306;17.056;2023-04-29T04:38:57;16.50;12.10;
69224;PMS1003;56333;51.306;17.056;2023-04-29T04:40:26;16.40;11.30;
69224;PMS1003;56333;51.306;17.056;2023-04-29T04:42:18;17.00;11.10;
69224;PMS1003;56333;51.306;17.056;2023-04-29T04:43:47;14.90;10.10;
69224;PMS1003;56333;51.306;17.056;2023-04-29T04:45:28;14.20;10.10;
69224;PMS1003;56333;51.306;17.056;2023-04-29T04:46:57;13.20;10.20;
69224;PMS1003;56333;51.306;17.056;2023-04-29T04:48:35;13.20;9.20;
69224;PMS1003;56333;51.306;17.056;2023-04-29T04:50:05;17.20;10.20;
69224;PMS1003;56333;51.306;17.056;2023-04-29T04:51:37;13.30;10.00;
69224;PMS1003;56333;51.306;17.056;2023-04-29T04:53:05;14.90;9.80;
69224;PMS1003;56333;51.306;17.056;2023-04-29T04:54:43;13.70;9.40;
69224;PMS1003;56333;51.306;17.056;2023-04-29T04:56:16;13.70;9.80;
69224;PMS1003;56333;51.306;17.056;2023-04-29T04:57:45;13.30;9.40;
69224;PMS1003;56333;51.306;17.056;2023-04-29T04:59:15;14.70;9.50;
69224;PMS1003;56333;51.306;17.056;2023-04-29T05:00:47;12.90;9.50;
69224;PMS1003;56333;51.306;17.056;2023-04-29T05:03:43;17.20;10.10;
69224;PMS1003;56333;51.306;17.056;2023-04-29T05:05:13;12.50;9.40;
69224;PMS1003;56333;51.306;17.056;2023-04-29T05:06:42;14.70;8.90;
69224;PMS1003;56333;51.306;17.056;2023-04-29T05:08:11;14.00;10.20;
69224;PMS1003;56333;51.306;17.056;2023-04-29T05:09:43;15.50;10.00;
69224;PMS1003;56333;51.306;17.056;2023-04-29T05:11:19;15.10;9.90;
69224;PMS1003;56333;51.306;17.056;2023-04-29T05:13:01;15.00;9.90;
69224;PMS1003;56333;51.306;17.056;2023-04-29T05:14:30;11.70;8.70;
69224;PMS1003;56333;51.306;17.056;2023-04-29T05:16:02;14.10;9.80;
69224;PMS1003;56333;51.306;17.056;2023-04-29T05:17:33;17.40;10.10;
69224;PMS1003;56333;51.306;17.056;2023-04-29T05:19:02;14.00;9.80;
69224;PMS1003;56333;51.306;17.056;2023-04-29T05:20:34;13.60;10.10;
69224;PMS1003;56333;51.306;17.056;2023-04-29T05:22:04;16.30;10.40;
69224;PMS1003;56333;51.306;17.056;2023-04-29T05:23:34;14.10;10.30;
69224;PMS1003;56333;51.306;17.056;2023-04-29T05:25:03;17.20;11.10;
69224;PMS1003;56333;51.306;17.056;2023-04-29T05:26:34;14.50;10.80;
69224;PMS1003;56333;51.306;17.056;2023-04-29T05:28:05;15.10;10.80;
69224;PMS1003;56333;51.306;17.056;2023-04-29T05:29:35;15.50;10.50;
69224;PMS1003;56333;51.306;17.056;2023-04-29T05:31:04;17.10;10.70;
69224;PMS1003;56333;51.306;17.056;2023-04-29T05:32:33;16.00;10.30;
69224;PMS1003;56333;51.306;17.056;2023-04-29T05:34:02;16.10;10.70;
69224;PMS1003;56333;51.306;17.056;2023-04-29T05:35:31;15.80;10.70;
69224;PMS1003;56333;51.306;17.056;2023-04-29T05:37:00;14.00;10.40;
69224;PMS1003;56333;51.306;17.056;2023-04-29T05:38:30;13.90;10.00;
69224;PMS1003;56333;51.306;17.056;2023-04-29T05:40:04;14.00;10.10;
69224;PMS1003;56333;51.306;17.056;2023-04-29T05:41:34;15.40;10.40;
69224;PMS1003;56333;51.306;17.056;2023-04-29T05:43:26;15.40;9.80;
69224;PMS1003;56333;51.306;17.056;2023-04-29T05:44:56;13.20;9.90;
69224;PMS1003;56333;51.306;17.056;2023-04-29T05:46:25;16.00;10.90;
69224;PMS1003;56333;51.306;17.056;2023-04-29T05:47:54;13.30;9.80;
69224;PMS1003;56333;51.306;17.056;2023-04-29T05:49:23;15.90;10.40;
69224;PMS1003;56333;51.306;17.056;2023-04-29T05:50:52;12.70;9.30;
69224;PMS1003;56333;51.306;17.056;2023-04-29T05:52:21;15.50;9.80;
69224;PMS1003;56333;51.306;17.056;2023-04-29T05:53:50;13.70;10.00;
69224;PMS1003;56333;51.306;17.056;2023-04-29T05:55:22;13.90;9.50;
69224;PMS1003;56333;51.306;17.056;2023-04-29T05:56:51;13.60;10.10;
69224;PMS1003;56333;51.306;17.056;2023-04-29T05:58:21;15.80;10.70;
69224;PMS1003;56333;51.306;17.056;2023-04-29T05:59:51;12.40;9.60;
69224;PMS1003;56333;51.306;17.056;2023-04-29T06:01:21;12.60;9.60;
69224;PMS1003;56333;51.306;17.056;2023-04-29T06:02:50;14.00;9.90;
69224;PMS1003;56333;51.306;17.056;2023-04-29T06:04:19;12.60;9.30;
69224;PMS1003;56333;51.306;17.056;2023-04-29T06:06:06;19.60;9.70;
69224;PMS1003;56333;51.306;17.056;2023-04-29T06:07:45;14.00;10.40;
69224;PMS1003;56333;51.306;17.056;2023-04-29T06:09:31;13.20;9.50;
69224;PMS1003;56333;51.306;17.056;2023-04-29T06:11:01;15.90;9.50;
69224;PMS1003;56333;51.306;17.056;2023-04-29T06:12:30;12.20;9.40;
69224;PMS1003;56333;51.306;17.056;2023-04-29T06:13:59;12.40;9.50;
69224;PMS1003;56333;51.306;17.056;2023-04-29T06:15:28;12.30;9.20;
69224;PMS1003;56333;51.306;17.056;2023-04-29T06:16:57;14.00;9.40;
69224;PMS1003;56333;51.306;17.056;2023-04-29T06:18:27;13.10;10.10;
69224;PMS1003;56333;51.306;17.056;2023-04-29T06:19:57;13.70;9.90;
69224;PMS1003;56333;51.306;17.056;2023-04-29T06:21:26;13.90;9.70;
69224;PMS1003;56333;51.306;17.056;2023-04-29T06:22:56;12.60;9.10;
69224;PMS1003;56333;51.306;17.056;2023-04-29T06:24:26;14.00;9.20;
69224;PMS1003;56333;51.306;17.056;2023-04-29T06:25:56;13.60;9.40;
69224;PMS1003;56333;51.306;17.056;2023-04-29T06:27:24;12.10;9.40;
69224;PMS1003;56333;51.306;17.056;2023-04-29T06:28:54;12.50;9.50;
69224;PMS1003;56333;51.306;17.056;2023-04-29T06:30:25;13.40;9.50;
69224;PMS1003;56333;51.306;17.056;2023-04-29T06:31:54;12.40;8.90;
69224;PMS1003;56333;51.306;17.056;2023-04-29T06:33:23;15.70;9.90;
69224;PMS1003;56333;51.306;17.056;2023-04-29T06:34:53;11.20;9.40;
69224;PMS1003;56333;51.306;17.056;2023-04-29T06:36:31;13.70;8.60;
69224;PMS1003;56333;51.306;17.056;2023-04-29T06:38:21;12.00;9.30;
69224;PMS1003;56333;51.306;17.056;2023-04-29T06:40:00;12.60;9.20;
69224;PMS1003;56333;51.306;17.056;2023-04-29T06:41:51;11.80;9.60;
69224;PMS1003;56333;51.306;17.056;2023-04-29T06:43:39;12.00;9.20;
69224;PMS1003;56333;51.306;17.056;2023-04-29T06:46:08;11.90;9.20;
69224;PMS1003;56333;51.306;17.056;2023-04-29T06:47:56;14.20;9.50;
69224;PMS1003;56333;51.306;17.056;2023-04-29T06:49:37;13.50;9.50;
69224;PMS1003;56333;51.306;17.056;2023-04-29T06:51:08;14.80;9.70;
69224;PMS1003;56333;51.306;17.056;2023-04-29T06:52:38;13.40;8.90;
69224;PMS1003;56333;51.306;17.056;2023-04-29T06:54:08;12.80;9.30;
69224;PMS1003;56333;51.306;17.056;2023-04-29T06:55:38;14.00;9.50;
69224;PMS1003;56333;51.306;17.056;2023-04-29T06:57:07;12.10;9.00;
69224;PMS1003;56333;51.306;17.056;2023-04-29T06:58:36;13.20;9.70;
69224;PMS1003;56333;51.306;17.056;2023-04-29T07:00:09;12.90;9.20;
69224;PMS1003;56333;51.306;17.056;2023-04-29T07:01:39;13.30;9.70;
69224;PMS1003;56333;51.306;17.056;2023-04-29T07:03:08;15.10;9.80;
69224;PMS1003;56333;51.306;17.056;2023-04-29T07:04:37;12.90;9.50;
69224;PMS1003;56333;51.306;17.056;2023-04-29T07:06:06;14.60;9.60;
69224;PMS1003;56333;51.306;17.056;2023-04-29T07:07:35;12.00;9.30;
69224;PMS1003;56333;51.306;17.056;2023-04-29T07:09:04;12.50;9.40;
69224;PMS1003;56333;51.306;17.056;2023-04-29T07:10:35;15.10;9.70;
69224;PMS1003;56333;51.306;17.056;2023-04-29T07:12:05;13.40;9.50;
69224;PMS1003;56333;51.306;17.056;2023-04-29T07:13:34;13.80;9.60;
69224;PMS1003;56333;51.306;17.056;2023-04-29T07:15:04;12.90;9.70;
69224;PMS1003;56333;51.306;17.056;2023-04-29T07:16:35;11.30;9.00;
69224;PMS1003;56333;51.306;17.056;2023-04-29T07:18:08;13.40;9.40;
69224;PMS1003;56333;51.306;17.056;2023-04-29T07:19:37;12.40;9.70;
69224;PMS1003;56333;51.306;17.056;2023-04-29T07:21:07;15.10;9.80;
69224;PMS1003;56333;51.306;17.056;2023-04-29T07:22:37;11.60;8.80;
69224;PMS1003;56333;51.306;17.056;2023-04-29T07:24:07;12.90;9.40;
69224;PMS1003;56333;51.306;17.056;2023-04-29T07:25:35;14.30;9.60;
69224;PMS1003;56333;51.306;17.056;2023-04-29T07:27:06;14.30;10.20;
69224;PMS1003;56333;51.306;17.056;2023-04-29T07:28:35;13.30;9.50;
69224;PMS1003;56333;51.306;17.056;2023-04-29T07:30:05;13.90;9.60;
69224;PMS1003;56333;51.306;17.056;2023-04-29T07:31:35;11.80;9.40;
69224;PMS1003;56333;51.306;17.056;2023-04-29T07:33:04;11.70;8.80;
69224;PMS1003;56333;51.306;17.056;2023-04-29T07:34:33;13.50;9.60;
69224;PMS1003;56333;51.306;17.056;2023-04-29T07:36:02;12.00;9.30;
69224;PMS1003;56333;51.306;17.056;2023-04-29T07:37:32;14.20;9.70;
69224;PMS1003;56333;51.306;17.056;2023-04-29T07:39:02;11.90;9.30;
69224;PMS1003;56333;51.306;17.056;2023-04-29T07:40:31;13.20;9.40;
69224;PMS1003;56333;51.306;17.056;2023-04-29T07:42:00;14.30;9.70;
69224;PMS1003;56333;51.306;17.056;2023-04-29T07:43:32;13.70;10.50;
69224;PMS1003;56333;51.306;17.056;2023-04-29T07:45:02;15.90;10.10;
69224;PMS1003;56333;51.306;17.056;2023-04-29T07:46:32;14.30;10.20;
69224;PMS1003;56333;51.306;17.056;2023-04-29T07:48:03;16.00;10.50;
69224;PMS1003;56333;51.306;17.056;2023-04-29T07:49:31;13.50;10.60;
69224;PMS1003;56333;51.306;17.056;2023-04-29T07:51:01;13.90;10.20;
69224;PMS1003;56333;51.306;17.056;2023-04-29T07:52:30;16.60;10.90;
69224;PMS1003;56333;51.306;17.056;2023-04-29T07:53:59;13.40;10.70;
69224;PMS1003;56333;51.306;17.056;2023-04-29T07:55:29;17.30;10.60;
69224;PMS1003;56333;51.306;17.056;2023-04-29T07:57:01;15.10;11.00;
69224;PMS1003;56333;51.306;17.056;2023-04-29T07:58:31;14.60;10.60;
69224;PMS1003;56333;51.306;17.056;2023-04-29T08:00:00;15.60;10.30;
69224;PMS1003;56333;51.306;17.056;2023-04-29T08:01:40;17.30;10.40;
69224;PMS1003;56333;51.306;17.056;2023-04-29T08:03:09;12.30;9.80;
69224;PMS1003;56333;51.306;17.056;2023-04-29T08:04:41;14.00;10.50;
69224;PMS1003;56333;51.306;17.056;2023-04-29T08:06:12;15.00;10.60;
69224;PMS1003;56333;51.306;17.056;2023-04-29T08:07:41;17.10;11.30;
69224;PMS1003;56333;51.306;17.056;2023-04-29T08:09:10;14.10;10.90;
69224;PMS1003;56333;51.306;17.056;2023-04-29T08:10:41;14.90;11.30;
69224;PMS1003;56333;51.306;17.056;2023-04-29T08:12:10;15.80;11.20;
69224;PMS1003;56333;51.306;17.056;2023-04-29T08:13:39;14.50;11.80;
69224;PMS1003;56333;51.306;17.056;2023-04-29T08:15:10;15.10;11.50;
69224;PMS1003;56333;51.306;17.056;2023-04-29T08:16:39;15.30;11.80;
69224;PMS1003;56333;51.306;17.056;2023-04-29T08:18:08;16.00;11.70;
69224;PMS1003;56333;51.306;17.056;2023-04-29T08:19:38;17.90;12.00;
69224;PMS1003;56333;51.306;17.056;2023-04-29T08:21:07;15.80;13.00;
69224;PMS1003;56333;51.306;17.056;2023-04-29T08:22:36;17.50;12.10;
69224;PMS1003;56333;51.306;17.056;2023-04-29T08:24:05;19.70;12.70;
69224;PMS1003;56333;51.306;17.056;2023-04-29T08:25:34;15.60;12.30;
69224;PMS1003;56333;51.306;17.056;2023-04-29T08:27:03;17.10;12.50;
69224;PMS1003;56333;51.306;17.056;2023-04-29T08:28:32;17.50;12.60;
69224;PMS1003;56333;51.306;17.056;2023-04-29T08:30:01;16.70;12.30;
69224;PMS1003;56333;51.306;17.056;2023-04-29T08:31:30;16.30;12.00;
69224;PMS1003;56333;51.306;17.056;2023-04-29T08:32:59;17.20;11.80;
69224;PMS1003;56333;51.306;17.056;2023-04-29T08:34:29;16.30;12.50;
69224;PMS1003;56333;51.306;17.056;2023-04-29T08:36:01;14.80;12.20;
69224;PMS1003;56333;51.306;17.056;2023-04-29T08:37:31;15.70;12.40;
69224;PMS1003;56333;51.306;17.056;2023-04-29T08:38:59;16.20;12.90;
69224;PMS1003;56333;51.306;17.056;2023-04-29T08:40:28;17.90;13.00;
69224;PMS1003;56333;51.306;17.056;2023-04-29T08:41:58;19.70;13.30;
69224;PMS1003;56333;51.306;17.056;2023-04-29T08:43:27;19.00;13.50;
69224;PMS1003;56333;51.306;17.056;2023-04-29T08:44:58;19.30;13.20;
69224;PMS1003;56333;51.306;17.056;2023-04-29T08:46:28;17.30;12.90;
69224;PMS1003;56333;51.306;17.056;2023-04-29T08:47:57;20.20;12.30;
69224;PMS1003;56333;51.306;17.056;2023-04-29T08:49:28;18.00;12.10;
69224;PMS1003;56333;51.306;17.056;2023-04-29T08:50:57;19.30;12.60;
69224;PMS1003;56333;51.306;17.056;2023-04-29T08:52:26;17.70;12.80;
69224;PMS1003;56333;51.306;17.056;2023-04-29T08:53:56;17.40;12.80;
69224;PMS1003;56333;51.306;17.056;2023-04-29T08:55:26;17.00;13.00;
69224;PMS1003;56333;51.306;17.056;2023-04-29T08:56:55;17.50;12.90;
69224;PMS1003;56333;51.306;17.056;2023-04-29T08:58:25;18.00;13.30;
69224;PMS1003;56333;51.306;17.056;2023-04-29T08:59:56;16.70;13.00;
69224;PMS1003;56333;51.306;17.056;2023-04-29T09:01:27;19.10;13.10;
69224;PMS1003;56333;51.306;17.056;2023-04-29T09:02:58;17.60;13.00;
69224;PMS1003;56333;51.306;17.056;2023-04-29T09:04:39;18.00;12.50;
69224;PMS1003;56333;51.306;17.056;2023-04-29T09:06:12;15.10;11.80;
69224;PMS1003;56333;51.306;17.056;2023-04-29T09:07:42;16.20;12.30;
69224;PMS1003;56333;51.306;17.056;2023-04-29T09:09:12;16.10;11.90;
69224;PMS1003;56333;51.306;17.056;2023-04-29T09:10:42;16.80;12.00;
69224;PMS1003;56333;51.306;17.056;2023-04-29T09:12:12;16.40;12.20;